sensor_id;sensor_type;location;lat;lon;timestamp;temperature;humidity
19536;HTU21D;9913;51.168;4.124;2023-04-01T00:01:10;9.37;77.13
19536;HTU21D;9913;51.168;4.124;2023-04-01T00:03:40;9.36;77.19
19536;HTU21D;9913;51.168;4.124;2023-04-01T00:06:12;9.35;77.32
19536;HTU21D;9913;51.168;4.124;2023-04-01T00:08:41;9.27;77.27
19536;HTU21D;9913;51.168;4.124;2023-04-01T00:11:09;9.34;77.08
19536;HTU21D;9913;51.168;4.124;2023-04-01T00:13:38;9.33;76.98
19536;HTU21D;9913;51.168;4.124;2023-04-01T00:16:07;9.40;77.05
19536;HTU21D;9913;51.168;4.124;2023-04-01T00:18:46;9.40;77.09
19536;HTU21D;9913;51.168;4.124;2023-04-01T00:21:16;9.37;76.90
19536;HTU21D;9913;51.168;4.124;2023-04-01T00:23:45;9.37;76.86
19536;HTU21D;9913;51.168;4.124;2023-04-01T00:26:14;9.38;76.92
19536;HTU21D;9913;51.168;4.124;2023-04-01T00:28:45;9.32;76.93
19536;HTU21D;9913;51.168;4.124;2023-04-01T00:31:14;9.33;77.01
19536;HTU21D;9913;51.168;4.124;2023-04-01T00:33:43;9.32;77.05
19536;HTU21D;9913;51.168;4.124;2023-04-01T00:36:12;9.31;76.95
19536;HTU21D;9913;51.168;4.124;2023-04-01T00:38:43;9.33;77.00
19536;HTU21D;9913;51.168;4.124;2023-04-01T00:41:13;9.33;77.08
19536;HTU21D;9913;51.168;4.124;2023-04-01T00:43:45;9.34;77.29
19536;HTU21D;9913;51.168;4.124;2023-04-01T00:46:14;9.32;77.39
19536;HTU21D;9913;51.168;4.124;2023-04-01T00:48:45;9.30;77.36
19536;HTU21D;9913;51.168;4.124;2023-04-01T00:51:18;9.40;77.33
19536;HTU21D;9913;51.168;4.124;2023-04-01T00:53:51;9.37;77.47
19536;HTU21D;9913;51.168;4.124;2023-04-01T00:56:24;9.32;77.30
19536;HTU21D;9913;51.168;4.124;2023-04-01T00:58:57;9.38;77.31
19536;HTU21D;9913;51.168;4.124;2023-04-01T01:01:28;9.32;77.15
19536;HTU21D;9913;51.168;4.124;2023-04-01T01:03:58;9.33;76.82
19536;HTU21D;9913;51.168;4.124;2023-04-01T01:06:38;9.34;76.60
19536;HTU21D;9913;51.168;4.124;2023-04-01T01:09:22;9.34;76.39
19536;HTU21D;9913;51.168;4.124;2023-04-01T01:11:58;9.17;75.87
19536;HTU21D;9913;51.168;4.124;2023-04-01T01:14:39;9.20;75.67
19536;HTU21D;9913;51.168;4.124;2023-04-01T01:17:15;9.19;75.49
19536;HTU21D;9913;51.168;4.124;2023-04-01T01:20:03;9.19;75.57
19536;HTU21D;9913;51.168;4.124;2023-04-01T01:22:58;9.16;75.54
19536;HTU21D;9913;51.168;4.124;2023-04-01T01:25:42;9.22;75.86
19536;HTU21D;9913;51.168;4.124;2023-04-01T01:28:26;9.19;75.95
19536;HTU21D;9913;51.168;4.124;2023-04-01T01:31:02;9.18;75.95
19536;HTU21D;9913;51.168;4.124;2023-04-01T01:33:43;9.16;75.86
19536;HTU21D;9913;51.168;4.124;2023-04-01T01:36:19;9.20;75.91
19536;HTU21D;9913;51.168;4.124;2023-04-01T01:38:50;9.22;76.05
19536;HTU21D;9913;51.168;4.124;2023-04-01T01:41:19;9.15;76.02
19536;HTU21D;9913;51.168;4.124;2023-04-01T01:43:50;9.11;75.99
19536;HTU21D;9913;51.168;4.124;2023-04-01T01:46:23;9.11;76.04
19536;HTU21D;9913;51.168;4.124;2023-04-01T01:48:53;9.11;76.09
19536;HTU21D;9913;51.168;4.124;2023-04-01T01:51:24;9.14;76.20
19536;HTU21D;9913;51.168;4.124;2023-04-01T01:53:55;9.10;76.41
19536;HTU21D;9913;51.168;4.124;2023-04-01T01:56:27;9.09;76.59
19536;HTU21D;9913;51.168;4.124;2023-04-01T01:58:58;9.03;76.62
19536;HTU21D;9913;51.168;4.124;2023-04-01T02:01:30;9.11;76.63
19536;HTU21D;9913;51.168;4.124;2023-04-01T02:04:09;9.05;76.67
19536;HTU21D;9913;51.168;4.124;2023-04-01T02:06:44;9.06;76.71
19536;HTU21D;9913;51.168;4.124;2023-04-01T02:09:15;9.04;76.79
19536;HTU21D;9913;51.168;4.124;2023-04-01T02:11:47;9.05;76.82
19536;HTU21D;9913;51.168;4.124;2023-04-01T02:14:17;9.03;76.74
19536;HTU21D;9913;51.168;4.124;2023-04-01T02:16:51;9.02;76.79
19536;HTU21D;9913;51.168;4.124;2023-04-01T02:19:23;9.00;76.66
19536;HTU21D;9913;51.168;4.124;2023-04-01T02:21:57;8.96;76.58
19536;HTU21D;9913;51.168;4.124;2023-04-01T02:24:30;8.97;76.37
19536;HTU21D;9913;51.168;4.124;2023-04-01T02:26:59;8.97;76.23
19536;HTU21D;9913;51.168;4.124;2023-04-01T02:29:29;8.94;76.08
19536;HTU21D;9913;51.168;4.124;2023-04-01T02:31:58;8.92;75.35
19536;HTU21D;9913;51.168;4.124;2023-04-01T02:34:27;8.89;74.93
19536;HTU21D;9913;51.168;4.124;2023-04-01T02:36:57;8.91;74.80
19536;HTU21D;9913;51.168;4.124;2023-04-01T02:39:26;8.91;74.78
19536;HTU21D;9913;51.168;4.124;2023-04-01T02:41:54;8.89;74.68
19536;HTU21D;9913;51.168;4.124;2023-04-01T02:44:22;8.82;74.39
19536;HTU21D;9913;51.168;4.124;2023-04-01T02:46:50;8.82;73.82
19536;HTU21D;9913;51.168;4.124;2023-04-01T02:49:20;8.86;73.79
19536;HTU21D;9913;51.168;4.124;2023-04-01T02:51:48;8.91;74.39
19536;HTU21D;9913;51.168;4.124;2023-04-01T02:54:17;8.89;74.98
19536;HTU21D;9913;51.168;4.124;2023-04-01T02:56:46;8.82;75.29
19536;HTU21D;9913;51.168;4.124;2023-04-01T02:59:14;8.87;75.48
19536;HTU21D;9913;51.168;4.124;2023-04-01T03:01:43;8.82;75.87
19536;HTU21D;9913;51.168;4.124;2023-04-01T03:04:11;8.80;76.05
19536;HTU21D;9913;51.168;4.124;2023-04-01T03:06:39;8.87;76.32
19536;HTU21D;9913;51.168;4.124;2023-04-01T03:09:08;8.85;76.40
19536;HTU21D;9913;51.168;4.124;2023-04-01T03:11:37;8.86;76.53
19536;HTU21D;9913;51.168;4.124;2023-04-01T03:14:06;8.86;76.41
19536;HTU21D;9913;51.168;4.124;2023-04-01T03:16:34;8.82;76.33
19536;HTU21D;9913;51.168;4.124;2023-04-01T03:19:02;8.78;76.15
19536;HTU21D;9913;51.168;4.124;2023-04-01T03:21:31;8.86;76.41
19536;HTU21D;9913;51.168;4.124;2023-04-01T03:24:00;8.83;76.60
19536;HTU21D;9913;51.168;4.124;2023-04-01T03:26:29;8.82;76.70
19536;HTU21D;9913;51.168;4.124;2023-04-01T03:28:59;8.83;76.91
19536;HTU21D;9913;51.168;4.124;2023-04-01T03:31:27;8.88;77.18
19536;HTU21D;9913;51.168;4.124;2023-04-01T03:33:57;8.80;77.34
19536;HTU21D;9913;51.168;4.124;2023-04-01T03:36:25;8.79;77.44
19536;HTU21D;9913;51.168;4.124;2023-04-01T03:38:53;8.86;77.37
19536;HTU21D;9913;51.168;4.124;2023-04-01T03:41:32;8.80;77.08
19536;HTU21D;9913;51.168;4.124;2023-04-01T03:44:02;8.88;77.12
19536;HTU21D;9913;51.168;4.124;2023-04-01T03:46:30;8.89;77.29
19536;HTU21D;9913;51.168;4.124;2023-04-01T03:48:59;8.87;77.31
19536;HTU21D;9913;51.168;4.124;2023-04-01T03:51:27;8.80;77.24
19536;HTU21D;9913;51.168;4.124;2023-04-01T03:53:55;8.85;76.98
19536;HTU21D;9913;51.168;4.124;2023-04-01T03:56:23;8.79;76.43
19536;HTU21D;9913;51.168;4.124;2023-04-01T03:58:52;8.82;76.18
19536;HTU21D;9913;51.168;4.124;2023-04-01T04:01:22;8.82;76.05
19536;HTU21D;9913;51.168;4.124;2023-04-01T04:03:54;8.77;75.79
19536;HTU21D;9913;51.168;4.124;2023-04-01T04:06:23;8.76;75.78
19536;HTU21D;9913;51.168;4.124;2023-04-01T04:08:54;8.74;75.44
19536;HTU21D;9913;51.168;4.124;2023-04-01T04:11:22;8.76;75.12
19536;HTU21D;9913;51.168;4.124;2023-04-01T04:13:52;8.74;74.67
19536;HTU21D;9913;51.168;4.124;2023-04-01T04:16:24;8.67;74.39
19536;HTU21D;9913;51.168;4.124;2023-04-01T04:18:57;8.73;73.55
19536;HTU21D;9913;51.168;4.124;2023-04-01T04:21:25;8.73;73.47
19536;HTU21D;9913;51.168;4.124;2023-04-01T04:23:53;8.77;73.28
19536;HTU21D;9913;51.168;4.124;2023-04-01T04:26:22;8.78;73.44
19536;HTU21D;9913;51.168;4.124;2023-04-01T04:28:58;8.70;73.61
19536;HTU21D;9913;51.168;4.124;2023-04-01T04:31:28;8.74;73.27
19536;HTU21D;9913;51.168;4.124;2023-04-01T04:34:00;8.78;72.85
19536;HTU21D;9913;51.168;4.124;2023-04-01T04:36:35;8.72;72.81
19536;HTU21D;9913;51.168;4.124;2023-04-01T04:39:03;8.73;72.60
19536;HTU21D;9913;51.168;4.124;2023-04-01T04:41:33;8.68;71.87
19536;HTU21D;9913;51.168;4.124;2023-04-01T04:44:04;8.71;71.51
19536;HTU21D;9913;51.168;4.124;2023-04-01T04:46:34;8.67;71.39
19536;HTU21D;9913;51.168;4.124;2023-04-01T04:49:13;8.73;71.06
19536;HTU21D;9913;51.168;4.124;2023-04-01T04:51:41;8.73;70.97
19536;HTU21D;9913;51.168;4.124;2023-04-01T04:54:11;8.71;70.80
19536;HTU21D;9913;51.168;4.124;2023-04-01T04:56:51;8.67;70.96
19536;HTU21D;9913;51.168;4.124;2023-04-01T04:59:21;8.65;71.17
19536;HTU21D;9913;51.168;4.124;2023-04-01T05:01:59;8.68;71.51
19536;HTU21D;9913;51.168;4.124;2023-04-01T05:04:28;8.68;71.71
19536;HTU21D;9913;51.168;4.124;2023-04-01T05:06:57;8.71;71.85
19536;HTU21D;9913;51.168;4.124;2023-04-01T05:09:25;8.73;72.35
19536;HTU21D;9913;51.168;4.124;2023-04-01T05:11:53;8.68;72.74
19536;HTU21D;9913;51.168;4.124;2023-04-01T05:14:23;8.63;72.77
19536;HTU21D;9913;51.168;4.124;2023-04-01T05:17:00;8.62;73.19
19536;HTU21D;9913;51.168;4.124;2023-04-01T05:19:28;8.60;73.23
19536;HTU21D;9913;51.168;4.124;2023-04-01T05:21:56;8.61;73.30
19536;HTU21D;9913;51.168;4.124;2023-04-01T05:24:25;8.57;73.01
19536;HTU21D;9913;51.168;4.124;2023-04-01T05:26:54;8.57;72.51
19536;HTU21D;9913;51.168;4.124;2023-04-01T05:29:24;8.59;72.32
19536;HTU21D;9913;51.168;4.124;2023-04-01T05:32:00;8.59;72.74
19536;HTU21D;9913;51.168;4.124;2023-04-01T05:34:28;8.59;73.07
19536;HTU21D;9913;51.168;4.124;2023-04-01T05:36:56;8.60;73.73
19536;HTU21D;9913;51.168;4.124;2023-04-01T05:39:25;8.58;74.04
19536;HTU21D;9913;51.168;4.124;2023-04-01T05:41:53;8.58;74.27
19536;HTU21D;9913;51.168;4.124;2023-04-01T05:44:21;8.56;74.28
19536;HTU21D;9913;51.168;4.124;2023-04-01T05:47:04;8.58;74.16
19536;HTU21D;9913;51.168;4.124;2023-04-01T05:49:33;8.63;74.47
19536;HTU21D;9913;51.168;4.124;2023-04-01T05:52:02;8.57;74.36
19536;HTU21D;9913;51.168;4.124;2023-04-01T05:54:34;8.53;74.25
19536;HTU21D;9913;51.168;4.124;2023-04-01T05:57:03;8.49;74.03
19536;HTU21D;9913;51.168;4.124;2023-04-01T05:59:31;8.52;73.93
19536;HTU21D;9913;51.168;4.124;2023-04-01T06:02:03;8.49;74.15
19536;HTU21D;9913;51.168;4.124;2023-04-01T06:04:36;8.55;74.62
19536;HTU21D;9913;51.168;4.124;2023-04-01T06:07:11;8.58;74.91
19536;HTU21D;9913;51.168;4.124;2023-04-01T06:09:40;8.58;75.15
19536;HTU21D;9913;51.168;4.124;2023-04-01T06:12:29;8.57;75.27
19536;HTU21D;9913;51.168;4.124;2023-04-01T06:15:12;8.58;75.12
19536;HTU21D;9913;51.168;4.124;2023-04-01T06:17:52;8.55;74.67
19536;HTU21D;9913;51.168;4.124;2023-04-01T06:20:32;8.57;74.35
19536;HTU21D;9913;51.168;4.124;2023-04-01T06:23:14;8.56;74.22
19536;HTU21D;9913;51.168;4.124;2023-04-01T06:25:57;8.56;74.09
19536;HTU21D;9913;51.168;4.124;2023-04-01T06:28:51;8.59;74.25
19536;HTU21D;9913;51.168;4.124;2023-04-01T06:31:31;8.57;74.39
19536;HTU21D;9913;51.168;4.124;2023-04-01T06:37:10;8.56;74.43
19536;HTU21D;9913;51.168;4.124;2023-04-01T06:42:52;8.67;74.98
19536;HTU21D;9913;51.168;4.124;2023-04-01T06:45:47;8.63;75.04
19536;HTU21D;9913;51.168;4.124;2023-04-01T06:48:46;8.57;74.80
19536;HTU21D;9913;51.168;4.124;2023-04-01T06:51:44;8.56;74.72
19536;HTU21D;9913;51.168;4.124;2023-04-01T06:54:35;8.73;74.63
19536;HTU21D;9913;51.168;4.124;2023-04-01T06:57:19;8.68;74.70
19536;HTU21D;9913;51.168;4.124;2023-04-01T06:59:49;8.68;74.13
19536;HTU21D;9913;51.168;4.124;2023-04-01T07:02:24;8.62;73.35
19536;HTU21D;9913;51.168;4.124;2023-04-01T07:04:55;8.66;72.81
19536;HTU21D;9913;51.168;4.124;2023-04-01T07:07:33;8.80;72.81
19536;HTU21D;9913;51.168;4.124;2023-04-01T07:10:11;8.74;72.24
19536;HTU21D;9913;51.168;4.124;2023-04-01T07:13:04;8.73;71.71
19536;HTU21D;9913;51.168;4.124;2023-04-01T07:16:12;8.89;71.46
19536;HTU21D;9913;51.168;4.124;2023-04-01T07:18:46;8.95;71.10
19536;HTU21D;9913;51.168;4.124;2023-04-01T07:21:26;8.95;70.94
19536;HTU21D;9913;51.168;4.124;2023-04-01T07:24:06;8.94;70.51
19536;HTU21D;9913;51.168;4.124;2023-04-01T07:26:56;8.89;70.03
19536;HTU21D;9913;51.168;4.124;2023-04-01T07:29:27;8.82;69.93
19536;HTU21D;9913;51.168;4.124;2023-04-01T07:32:20;8.89;70.29
19536;HTU21D;9913;51.168;4.124;2023-04-01T07:35:09;8.92;70.68
19536;HTU21D;9913;51.168;4.124;2023-04-01T07:37:47;8.88;70.71
19536;HTU21D;9913;51.168;4.124;2023-04-01T07:40:30;8.94;70.79
19536;HTU21D;9913;51.168;4.124;2023-04-01T07:43:13;8.88;70.87
19536;HTU21D;9913;51.168;4.124;2023-04-01T07:46:00;9.03;70.98
19536;HTU21D;9913;51.168;4.124;2023-04-01T07:48:37;8.98;70.90
19536;HTU21D;9913;51.168;4.124;2023-04-01T07:51:13;8.93;70.63
19536;HTU21D;9913;51.168;4.124;2023-04-01T07:53:47;8.92;70.26
19536;HTU21D;9913;51.168;4.124;2023-04-01T07:56:23;8.94;69.76
19536;HTU21D;9913;51.168;4.124;2023-04-01T07:59:01;9.07;69.45
19536;HTU21D;9913;51.168;4.124;2023-04-01T08:02:12;9.17;69.29
19536;HTU21D;9913;51.168;4.124;2023-04-01T08:04:54;9.19;69.17
19536;HTU21D;9913;51.168;4.124;2023-04-01T08:07:31;9.07;68.42
19536;HTU21D;9913;51.168;4.124;2023-04-01T08:10:32;9.15;68.33
19536;HTU21D;9913;51.168;4.124;2023-04-01T08:13:30;9.14;68.23
19536;HTU21D;9913;51.168;4.124;2023-04-01T08:16:25;9.11;67.97
19536;HTU21D;9913;51.168;4.124;2023-04-01T08:19:05;9.10;68.10
19536;HTU21D;9913;51.168;4.124;2023-04-01T08:21:41;9.20;68.67
19536;HTU21D;9913;51.168;4.124;2023-04-01T08:24:17;9.11;68.58
19536;HTU21D;9913;51.168;4.124;2023-04-01T08:26:52;9.26;68.52
19536;HTU21D;9913;51.168;4.124;2023-04-01T08:29:26;9.22;68.16
19536;HTU21D;9913;51.168;4.124;2023-04-01T08:32:06;9.27;67.69
19536;HTU21D;9913;51.168;4.124;2023-04-01T08:34:40;9.36;67.36
19536;HTU21D;9913;51.168;4.124;2023-04-01T08:37:22;9.36;67.39
19536;HTU21D;9913;51.168;4.124;2023-04-01T08:39:58;9.36;66.77
19536;HTU21D;9913;51.168;4.124;2023-04-01T08:42:54;9.45;66.73
19536;HTU21D;9913;51.168;4.124;2023-04-01T08:45:42;9.48;66.66
19536;HTU21D;9913;51.168;4.124;2023-04-01T08:48:44;9.41;65.82
19536;HTU21D;9913;51.168;4.124;2023-04-01T08:51:53;9.38;64.47
19536;HTU21D;9913;51.168;4.124;2023-04-01T08:54:41;9.37;64.05
19536;HTU21D;9913;51.168;4.124;2023-04-01T08:57:24;9.45;63.68
19536;HTU21D;9913;51.168;4.124;2023-04-01T09:00:26;9.32;62.40
19536;HTU21D;9913;51.168;4.124;2023-04-01T09:03:43;9.35;61.54
19536;HTU21D;9913;51.168;4.124;2023-04-01T09:06:33;9.31;61.29
19536;HTU21D;9913;51.168;4.124;2023-04-01T09:15:50;9.34;62.04
19536;HTU21D;9913;51.168;4.124;2023-04-01T09:18:34;9.49;61.06
19536;HTU21D;9913;51.168;4.124;2023-04-01T09:21:30;9.41;61.03
19536;HTU21D;9913;51.168;4.124;2023-04-01T09:27:04;9.54;59.58
19536;HTU21D;9913;51.168;4.124;2023-04-01T09:30:03;9.54;59.67
19536;HTU21D;9913;51.168;4.124;2023-04-01T09:32:45;9.62;59.18
19536;HTU21D;9913;51.168;4.124;2023-04-01T09:35:23;9.71;59.93
19536;HTU21D;9913;51.168;4.124;2023-04-01T09:38:17;9.66;60.20
19536;HTU21D;9913;51.168;4.124;2023-04-01T09:40:54;9.41;59.72
19536;HTU21D;9913;51.168;4.124;2023-04-01T09:43:50;9.56;60.64
19536;HTU21D;9913;51.168;4.124;2023-04-01T09:46:30;9.39;60.69
19536;HTU21D;9913;51.168;4.124;2023-04-01T09:49:40;9.39;60.99
19536;HTU21D;9913;51.168;4.124;2023-04-01T09:52:20;9.46;61.20
19536;HTU21D;9913;51.168;4.124;2023-04-01T09:55:06;9.21;60.66
19536;HTU21D;9913;51.168;4.124;2023-04-01T09:58:00;9.38;61.17
19536;HTU21D;9913;51.168;4.124;2023-04-01T10:04:17;9.81;59.54
19536;HTU21D;9913;51.168;4.124;2023-04-01T10:07:06;9.78;58.48
19536;HTU21D;9913;51.168;4.124;2023-04-01T10:19:40;9.60;59.26
19536;HTU21D;9913;51.168;4.124;2023-04-01T10:25:38;9.40;60.83
19536;HTU21D;9913;51.168;4.124;2023-04-01T10:28:38;9.32;61.18
19536;HTU21D;9913;51.168;4.124;2023-04-01T10:34:56;9.27;61.78
19536;HTU21D;9913;51.168;4.124;2023-04-01T10:41:08;9.48;60.89
19536;HTU21D;9913;51.168;4.124;2023-04-01T10:44:17;9.36;59.86
19536;HTU21D;9913;51.168;4.124;2023-04-01T10:47:23;9.54;58.06
19536;HTU21D;9913;51.168;4.124;2023-04-01T10:50:32;9.60;57.09
19536;HTU21D;9913;51.168;4.124;2023-04-01T10:53:32;9.68;57.33
19536;HTU21D;9913;51.168;4.124;2023-04-01T10:56:54;9.71;57.41
19536;HTU21D;9913;51.168;4.124;2023-04-01T11:07:04;9.68;57.16
19536;HTU21D;9913;51.168;4.124;2023-04-01T11:13:03;10.00;56.81
19536;HTU21D;9913;51.168;4.124;2023-04-01T11:16:05;9.96;55.49
19536;HTU21D;9913;51.168;4.124;2023-04-01T11:19:17;9.98;55.31
19536;HTU21D;9913;51.168;4.124;2023-04-01T11:22:20;10.14;55.98
19536;HTU21D;9913;51.168;4.124;2023-04-01T11:31:37;9.80;57.68
19536;HTU21D;9913;51.168;4.124;2023-04-01T11:34:20;9.69;57.48
19536;HTU21D;9913;51.168;4.124;2023-04-01T11:36:58;9.80;57.27
19536;HTU21D;9913;51.168;4.124;2023-04-01T11:39:38;9.75;56.59
19536;HTU21D;9913;51.168;4.124;2023-04-01T11:42:34;9.82;56.68
19536;HTU21D;9913;51.168;4.124;2023-04-01T11:45:34;9.86;56.00
19536;HTU21D;9913;51.168;4.124;2023-04-01T11:48:16;9.95;55.74
19536;HTU21D;9913;51.168;4.124;2023-04-01T11:51:01;10.05;55.30
19536;HTU21D;9913;51.168;4.124;2023-04-01T11:53:42;10.24;55.35
19536;HTU21D;9913;51.168;4.124;2023-04-01T11:56:26;10.34;55.53
19536;HTU21D;9913;51.168;4.124;2023-04-01T11:59:09;10.33;54.84
19536;HTU21D;9913;51.168;4.124;2023-04-01T12:01:48;10.21;55.03
19536;HTU21D;9913;51.168;4.124;2023-04-01T12:07:41;10.01;56.40
19536;HTU21D;9913;51.168;4.124;2023-04-01T12:10:18;9.97;56.35
19536;HTU21D;9913;51.168;4.124;2023-04-01T12:12:54;10.19;57.21
19536;HTU21D;9913;51.168;4.124;2023-04-01T12:15:34;10.04;57.01
19536;HTU21D;9913;51.168;4.124;2023-04-01T12:18:14;10.06;57.40
19536;HTU21D;9913;51.168;4.124;2023-04-01T12:20:49;9.99;57.92
19536;HTU21D;9913;51.168;4.124;2023-04-01T12:23:33;10.08;58.38
19536;HTU21D;9913;51.168;4.124;2023-04-01T12:26:15;10.05;58.06
19536;HTU21D;9913;51.168;4.124;2023-04-01T12:29:09;10.18;58.06
19536;HTU21D;9913;51.168;4.124;2023-04-01T12:31:47;10.40;57.93
19536;HTU21D;9913;51.168;4.124;2023-04-01T12:34:33;10.07;57.88
19536;HTU21D;9913;51.168;4.124;2023-04-01T12:37:08;10.03;58.67
19536;HTU21D;9913;51.168;4.124;2023-04-01T12:40:14;9.98;58.37
19536;HTU21D;9913;51.168;4.124;2023-04-01T12:42:55;9.74;58.30
19536;HTU21D;9913;51.168;4.124;2023-04-01T12:45:39;9.80;59.14
19536;HTU21D;9913;51.168;4.124;2023-04-01T12:48:42;9.77;59.13
19536;HTU21D;9913;51.168;4.124;2023-04-01T12:51:40;9.90;59.28
19536;HTU21D;9913;51.168;4.124;2023-04-01T12:57:20;9.95;58.61
19536;HTU21D;9913;51.168;4.124;2023-04-01T13:00:13;9.95;59.22
19536;HTU21D;9913;51.168;4.124;2023-04-01T13:02:59;9.80;58.72
19536;HTU21D;9913;51.168;4.124;2023-04-01T13:08:34;9.76;59.16
19536;HTU21D;9913;51.168;4.124;2023-04-01T13:11:09;9.70;58.61
19536;HTU21D;9913;51.168;4.124;2023-04-01T13:14:11;9.78;58.57
19536;HTU21D;9913;51.168;4.124;2023-04-01T13:17:00;9.72;58.22
19536;HTU21D;9913;51.168;4.124;2023-04-01T13:19:35;9.74;58.58
19536;HTU21D;9913;51.168;4.124;2023-04-01T13:22:10;9.86;58.97
19536;HTU21D;9913;51.168;4.124;2023-04-01T13:24:49;9.68;57.98
19536;HTU21D;9913;51.168;4.124;2023-04-01T13:27:25;9.61;58.03
19536;HTU21D;9913;51.168;4.124;2023-04-01T13:30:10;9.79;58.54
19536;HTU21D;9913;51.168;4.124;2023-04-01T13:32:44;9.70;57.96
19536;HTU21D;9913;51.168;4.124;2023-04-01T13:35:20;9.83;57.81
19536;HTU21D;9913;51.168;4.124;2023-04-01T13:37:59;9.98;57.64
19536;HTU21D;9913;51.168;4.124;2023-04-01T13:40:36;10.15;57.37
19536;HTU21D;9913;51.168;4.124;2023-04-01T13:43:23;9.95;56.45
19536;HTU21D;9913;51.168;4.124;2023-04-01T13:46:22;9.91;57.72
19536;HTU21D;9913;51.168;4.124;2023-04-01T13:49:06;9.77;57.40
19536;HTU21D;9913;51.168;4.124;2023-04-01T13:52:08;9.70;57.39
19536;HTU21D;9913;51.168;4.124;2023-04-01T13:54:52;9.76;58.54
19536;HTU21D;9913;51.168;4.124;2023-04-01T13:57:43;9.79;58.22
19536;HTU21D;9913;51.168;4.124;2023-04-01T14:00:23;9.83;57.71
19536;HTU21D;9913;51.168;4.124;2023-04-01T14:03:21;9.83;57.97
19536;HTU21D;9913;51.168;4.124;2023-04-01T14:06:16;9.89;57.45
19536;HTU21D;9913;51.168;4.124;2023-04-01T14:09:13;9.67;56.68
19536;HTU21D;9913;51.168;4.124;2023-04-01T14:11:52;9.81;56.90
19536;HTU21D;9913;51.168;4.124;2023-04-01T14:14:31;9.90;57.12
19536;HTU21D;9913;51.168;4.124;2023-04-01T14:17:12;10.07;56.07
19536;HTU21D;9913;51.168;4.124;2023-04-01T14:20:02;10.24;57.15
19536;HTU21D;9913;51.168;4.124;2023-04-01T14:22:38;10.31;55.24
19536;HTU21D;9913;51.168;4.124;2023-04-01T14:25:30;10.48;56.53
19536;HTU21D;9913;51.168;4.124;2023-04-01T14:28:12;10.10;55.46
19536;HTU21D;9913;51.168;4.124;2023-04-01T14:30:55;9.99;56.31
19536;HTU21D;9913;51.168;4.124;2023-04-01T14:33:37;9.95;55.99
19536;HTU21D;9913;51.168;4.124;2023-04-01T14:36:31;9.80;56.42
19536;HTU21D;9913;51.168;4.124;2023-04-01T14:39:15;9.70;56.92
19536;HTU21D;9913;51.168;4.124;2023-04-01T14:41:51;10.00;56.36
19536;HTU21D;9913;51.168;4.124;2023-04-01T14:44:52;10.21;55.13
19536;HTU21D;9913;51.168;4.124;2023-04-01T14:47:39;10.31;55.07
19536;HTU21D;9913;51.168;4.124;2023-04-01T14:50:14;10.15;55.48
19536;HTU21D;9913;51.168;4.124;2023-04-01T14:52:52;10.07;56.21
19536;HTU21D;9913;51.168;4.124;2023-04-01T14:55:31;9.94;55.95
19536;HTU21D;9913;51.168;4.124;2023-04-01T14:58:12;9.66;56.42
19536;HTU21D;9913;51.168;4.124;2023-04-01T15:01:01;9.67;56.58
19536;HTU21D;9913;51.168;4.124;2023-04-01T15:03:40;9.56;56.90
19536;HTU21D;9913;51.168;4.124;2023-04-01T15:06:45;9.63;57.16
19536;HTU21D;9913;51.168;4.124;2023-04-01T15:09:22;9.57;56.93
19536;HTU21D;9913;51.168;4.124;2023-04-01T15:12:03;9.55;56.96
19536;HTU21D;9913;51.168;4.124;2023-04-01T15:17:47;9.45;58.11
19536;HTU21D;9913;51.168;4.124;2023-04-01T15:23:25;9.38;58.35
19536;HTU21D;9913;51.168;4.124;2023-04-01T15:26:18;9.36;59.19
19536;HTU21D;9913;51.168;4.124;2023-04-01T15:29:06;9.40;60.80
19536;HTU21D;9913;51.168;4.124;2023-04-01T15:31:44;9.21;60.68
19536;HTU21D;9913;51.168;4.124;2023-04-01T15:34:28;9.29;60.94
19536;HTU21D;9913;51.168;4.124;2023-04-01T15:37:04;9.23;60.72
19536;HTU21D;9913;51.168;4.124;2023-04-01T15:39:45;9.39;61.21
19536;HTU21D;9913;51.168;4.124;2023-04-01T15:42:27;9.33;60.67
19536;HTU21D;9913;51.168;4.124;2023-04-01T15:45:12;9.35;61.22
19536;HTU21D;9913;51.168;4.124;2023-04-01T15:47:45;9.32;60.80
19536;HTU21D;9913;51.168;4.124;2023-04-01T15:50:28;9.31;61.17
19536;HTU21D;9913;51.168;4.124;2023-04-01T15:53:18;9.26;60.86
19536;HTU21D;9913;51.168;4.124;2023-04-01T15:55:54;9.26;61.13
19536;HTU21D;9913;51.168;4.124;2023-04-01T15:58:42;9.20;61.42
19536;HTU21D;9913;51.168;4.124;2023-04-01T16:01:26;9.17;61.60
19536;HTU21D;9913;51.168;4.124;2023-04-01T16:04:01;9.20;62.43
19536;HTU21D;9913;51.168;4.124;2023-04-01T16:06:50;9.08;62.45
19536;HTU21D;9913;51.168;4.124;2023-04-01T16:09:30;9.18;62.66
19536;HTU21D;9913;51.168;4.124;2023-04-01T16:12:07;9.08;62.64
19536;HTU21D;9913;51.168;4.124;2023-04-01T16:14:48;9.07;63.21
19536;HTU21D;9913;51.168;4.124;2023-04-01T16:17:29;9.18;63.72
19536;HTU21D;9913;51.168;4.124;2023-04-01T16:20:02;9.10;63.46
19536;HTU21D;9913;51.168;4.124;2023-04-01T16:22:33;9.22;63.89
19536;HTU21D;9913;51.168;4.124;2023-04-01T16:25:19;9.08;63.99
19536;HTU21D;9913;51.168;4.124;2023-04-01T16:27:54;9.14;64.09
19536;HTU21D;9913;51.168;4.124;2023-04-01T16:30:35;9.20;64.33
19536;HTU21D;9913;51.168;4.124;2023-04-01T16:33:11;9.15;63.96
19536;HTU21D;9913;51.168;4.124;2023-04-01T16:35:45;9.16;63.98
19536;HTU21D;9913;51.168;4.124;2023-04-01T16:38:20;9.14;64.14
19536;HTU21D;9913;51.168;4.124;2023-04-01T16:41:00;9.02;64.49
19536;HTU21D;9913;51.168;4.124;2023-04-01T16:43:39;9.18;65.41
19536;HTU21D;9913;51.168;4.124;2023-04-01T16:46:27;9.16;66.18
19536;HTU21D;9913;51.168;4.124;2023-04-01T16:49:23;9.18;66.57
19536;HTU21D;9913;51.168;4.124;2023-04-01T16:51:57;9.15;66.26
19536;HTU21D;9913;51.168;4.124;2023-04-01T16:54:30;9.17;66.49
19536;HTU21D;9913;51.168;4.124;2023-04-01T16:57:03;9.26;66.45
19536;HTU21D;9913;51.168;4.124;2023-04-01T16:59:35;9.21;65.40
19536;HTU21D;9913;51.168;4.124;2023-04-01T17:02:11;9.14;64.60
19536;HTU21D;9913;51.168;4.124;2023-04-01T17:04:44;9.11;64.05
19536;HTU21D;9913;51.168;4.124;2023-04-01T17:07:22;9.17;64.51
19536;HTU21D;9913;51.168;4.124;2023-04-01T17:10:03;9.18;64.20
19536;HTU21D;9913;51.168;4.124;2023-04-01T17:12:37;9.05;64.18
19536;HTU21D;9913;51.168;4.124;2023-04-01T17:15:17;9.04;65.04
19536;HTU21D;9913;51.168;4.124;2023-04-01T17:17:54;9.00;65.05
19536;HTU21D;9913;51.168;4.124;2023-04-01T17:20:40;8.93;65.39
19536;HTU21D;9913;51.168;4.124;2023-04-01T17:23:19;8.90;65.68
19536;HTU21D;9913;51.168;4.124;2023-04-01T17:25:57;8.88;65.89
19536;HTU21D;9913;51.168;4.124;2023-04-01T17:28:40;8.80;65.49
19536;HTU21D;9913;51.168;4.124;2023-04-01T17:31:18;8.82;65.75
19536;HTU21D;9913;51.168;4.124;2023-04-01T17:33:58;8.79;65.53
19536;HTU21D;9913;51.168;4.124;2023-04-01T17:36:48;8.82;66.07
19536;HTU21D;9913;51.168;4.124;2023-04-01T17:39:42;8.78;65.96
19536;HTU21D;9913;51.168;4.124;2023-04-01T17:42:16;8.76;66.06
19536;HTU21D;9913;51.168;4.124;2023-04-01T17:44:53;8.79;65.88
19536;HTU21D;9913;51.168;4.124;2023-04-01T17:47:34;8.76;66.01
19536;HTU21D;9913;51.168;4.124;2023-04-01T17:50:17;8.72;65.87
19536;HTU21D;9913;51.168;4.124;2023-04-01T17:52:59;8.76;65.99
19536;HTU21D;9913;51.168;4.124;2023-04-01T17:58:34;8.71;65.74
19536;HTU21D;9913;51.168;4.124;2023-04-01T18:01:26;8.63;65.87
19536;HTU21D;9913;51.168;4.124;2023-04-01T18:04:08;8.67;65.59
19536;HTU21D;9913;51.168;4.124;2023-04-01T18:06:52;8.62;65.38
19536;HTU21D;9913;51.168;4.124;2023-04-01T18:09:29;8.61;65.34
19536;HTU21D;9913;51.168;4.124;2023-04-01T18:12:09;8.47;65.50
19536;HTU21D;9913;51.168;4.124;2023-04-01T18:14:59;8.48;66.20
19536;HTU21D;9913;51.168;4.124;2023-04-01T18:17:42;8.49;66.62